Time;durP1;ratioP1;P1;durP2;ratioP2;P2;SDS_P1;SDS_P2;PMS_P1;PMS_P2;Temp;Humidity;BMP_temperature;BMP_pressure;BME280_temperature;BME280_humidity;BME280_pressure;Samples;Min_cycle;Max_cycle;Signal;HPM_P1;HPM_P2
2022/09/22 00:00:57;;;;;;;2.00;1.90;;;;;;;23.69;49.95;98175.84;5031339;28;20464;-30
2022/09/22 00:03:24;;;;;;;2.17;1.87;;;;;;;23.68;49.95;98169.81;5027124;28;20201;-30
2022/09/22 00:05:59;;;;;;;2.97;1.97;;;;;;;23.70;49.97;98164.75;5011880;28;20217;-30
2022/09/22 00:08:27;;;;;;;2.10;1.90;;;;;;;23.66;50.07;98160.34;5030331;28;20197;-30
2022/09/22 00:11:34;;;;;;;2.10;1.90;;;;;;;23.65;49.78;98164.59;5030871;28;20205;-30
2022/09/22 00:14:04;;;;;;;1.80;1.70;;;;;;;23.68;50.04;98169.81;4993898;28;20225;-30
2022/09/22 00:16:33;;;;;;;2.00;1.80;;;;;;;23.62;50.07;98154.25;5012640;28;20227;-30
2022/09/22 00:18:59;;;;;;;2.30;1.90;;;;;;;23.66;50.26;98161.22;5027699;28;21156;-30
2022/09/22 00:21:29;;;;;;;1.80;1.70;;;;;;;23.60;49.95;98142.19;5030755;28;20672;-30
2022/09/22 00:23:56;;;;;;;2.13;1.93;;;;;;;23.65;50.01;98162.03;5031348;28;20377;-30
2022/09/22 00:26:23;;;;;;;2.87;2.10;;;;;;;23.66;50.07;98153.53;5030705;28;20198;-30
2022/09/22 00:28:50;;;;;;;2.13;1.93;;;;;;;23.67;50.06;98154.38;5030733;28;20577;-30
2022/09/22 00:31:22;;;;;;;1.90;1.80;;;;;;;23.67;50.05;98156.94;5023901;28;20201;-30
2022/09/22 00:33:50;;;;;;;2.03;1.80;;;;;;;23.67;49.80;98151.81;5023575;28;20669;-30
2022/09/22 00:36:17;;;;;;;2.00;1.90;;;;;;;23.66;50.15;98144.94;5031141;28;20603;-30
2022/09/22 00:38:44;;;;;;;1.80;1.70;;;;;;;23.67;49.72;98147.56;5031068;28;20312;-30
2022/09/22 00:41:15;;;;;;;2.20;2.00;;;;;;;23.64;50.03;98144.03;5030461;28;20204;-30
2022/09/22 00:43:42;;;;;;;2.40;1.97;;;;;;;23.62;49.88;98136.28;5030014;28;20309;-30
2022/09/22 00:46:14;;;;;;;1.83;1.73;;;;;;;23.66;49.80;98144.94;4995034;28;20194;-30
2022/09/22 00:48:44;;;;;;;2.37;2.17;;;;;;;23.61;49.71;98136.22;5020700;28;20204;-30
2022/09/22 00:51:12;;;;;;;2.30;2.10;;;;;;;23.67;49.91;98136.41;5003649;28;20202;-30
2022/09/22 00:53:38;;;;;;;2.20;2.00;;;;;;;23.65;49.92;98144.06;4996113;28;20586;-30
2022/09/22 00:56:08;;;;;;;2.30;2.10;;;;;;;23.66;49.79;98135.56;5010112;28;20614;-30
2022/09/22 00:58:39;;;;;;;1.90;1.80;;;;;;;23.67;49.80;98139.88;5012608;28;20688;-30
2022/09/22 01:01:08;;;;;;;2.33;2.13;;;;;;;23.67;50.08;98138.97;4988678;28;20206;-29
2022/09/22 01:03:38;;;;;;;2.30;2.10;;;;;;;23.67;49.98;98133.84;5028910;28;20267;-30
2022/09/22 01:06:05;;;;;;;2.60;2.17;;;;;;;23.68;49.72;98136.47;4995719;28;20293;-30
2022/09/22 01:08:33;;;;;;;2.13;1.93;;;;;;;23.67;49.90;98132.16;5001498;28;20578;-30
2022/09/22 01:10:59;;;;;;;2.10;1.77;;;;;;;23.67;49.66;98134.72;5009723;28;20202;-30
2022/09/22 01:13:32;;;;;;;1.83;1.73;;;;;;;23.67;49.83;98136.41;5013022;28;20208;-30
2022/09/22 01:16:01;;;;;;;2.20;2.00;;;;;;;23.67;49.99;98137.28;5029533;28;20586;-30
2022/09/22 01:18:47;;;;;;;2.77;1.77;;;;;;;23.68;49.75;98135.63;5029619;28;20240;-30
2022/09/22 01:21:20;;;;;;;2.10;1.90;;;;;;;23.68;49.94;98135.63;5030544;28;20206;-30
2022/09/22 01:24:12;;;;;;;2.20;2.00;;;;;;;23.68;49.61;98133.03;5013196;28;20225;-30
2022/09/22 01:27:13;;;;;;;2.13;2.03;;;;;;;23.67;49.79;98134.72;5023041;28;20248;-30
2022/09/22 01:29:48;;;;;;;2.20;2.00;;;;;;;23.67;49.96;98129.59;5024058;28;20365;-30
2022/09/22 01:32:27;;;;;;;2.00;1.90;;;;;;;23.67;50.07;98126.16;5020177;28;20233;-29
2022/09/22 01:34:59;;;;;;;2.83;2.10;;;;;;;23.66;50.32;98130.44;5027617;28;20734;-30
2022/09/22 01:37:32;;;;;;;2.37;2.17;;;;;;;23.65;50.03;98131.25;5030299;28;20680;-30
2022/09/22 01:40:03;;;;;;;2.10;1.87;;;;;;;23.62;50.22;98120.88;4997174;28;20213;-30
2022/09/22 01:42:35;;;;;;;2.10;1.90;;;;;;;23.65;49.87;98127.81;5013027;28;20198;-30
2022/09/22 01:45:10;;;;;;;2.20;2.00;;;;;;;23.65;50.15;98126.09;4996147;28;20229;-29
2022/09/22 01:47:44;;;;;;;1.93;1.83;;;;;;;23.64;49.97;98116.69;4995731;28;20668;-30
2022/09/22 01:50:32;;;;;;;2.20;2.00;;;;;;;23.65;50.00;98126.09;5003998;28;20217;-30
2022/09/22 01:53:01;;;;;;;2.63;1.80;;;;;;;23.64;49.99;98124.38;5012271;28;20208;-30
2022/09/22 01:55:39;;;;;;;2.33;2.13;;;;;;;23.54;49.87;98094.13;5010852;28;20222;-30
2022/09/22 01:58:11;;;;;;;2.30;2.10;;;;;;;23.65;49.95;98117.56;4996448;28;20231;-30
2022/09/22 02:00:39;;;;;;;2.07;1.90;;;;;;;23.65;49.76;98120.13;4996602;28;20197;-30
2022/09/22 02:03:08;;;;;;;2.10;1.90;;;;;;;23.64;49.75;98119.25;4996029;28;20715;-30
2022/09/22 02:05:44;;;;;;;2.00;1.87;;;;;;;23.65;49.79;98123.53;4996142;28;20222;-30
2022/09/22 02:08:13;;;;;;;3.10;2.10;;;;;;;23.65;49.67;98127.81;4996820;28;20204;-30
2022/09/22 02:10:41;;;;;;;2.20;2.00;;;;;;;23.66;49.70;98126.97;4996809;28;20202;-29
2022/09/22 02:13:08;;;;;;;1.80;1.70;;;;;;;23.59;49.62;98109.66;5002841;28;20566;-30
2022/09/22 02:18:23;;;;;;;2.10;1.90;;;;;;;23.66;50.00;98121.84;5012922;28;20232;-29
2022/09/22 02:20:49;;;;;;;1.97;1.87;;;;;;;23.66;49.71;98121.84;5011939;28;20193;-29
2022/09/22 02:23:16;;;;;;;2.20;2.00;;;;;;;23.65;49.58;98126.09;5012456;28;20198;-30
2022/09/22 02:25:43;;;;;;;1.97;1.80;;;;;;;23.57;49.62;98107.06;5028594;28;20679;-29
2022/09/22 02:28:10;;;;;;;1.80;1.70;;;;;;;23.60;49.69;98112.28;4996390;28;20201;-30
2022/09/22 02:30:36;;;;;;;1.80;1.70;;;;;;;23.66;49.82;98121.84;5013146;28;20213;-30
2022/09/22 02:33:03;;;;;;;1.80;1.70;;;;;;;23.66;49.80;98121.84;5015338;28;20233;-30
2022/09/22 02:35:29;;;;;;;1.80;1.70;;;;;;;23.61;49.57;98110.56;5024635;23;20214;-23
2022/09/22 02:37:59;;;;;;;1.90;1.80;;;;;;;23.66;50.02;98125.31;5029315;28;20229;-24
2022/09/22 02:40:42;;;;;;;1.77;1.67;;;;;;;23.51;49.91;98099.19;5046775;28;20212;-23
2022/09/22 02:43:32;;;;;;;2.30;1.97;;;;;;;23.67;49.99;98121.03;5032225;28;20670;-23
2022/09/22 02:46:03;;;;;;;1.90;1.80;;;;;;;23.56;50.06;98102.72;5034665;28;20216;-22
2022/09/22 02:48:34;;;;;;;1.80;1.70;;;;;;;23.65;50.23;98120.13;5019516;28;20193;-23
2022/09/22 02:51:00;;;;;;;1.80;1.70;;;;;;;23.62;50.21;98117.47;5018845;28;20683;-22
2022/09/22 02:53:27;;;;;;;1.90;1.80;;;;;;;23.64;49.95;98119.25;5052662;28;20208;-22
2022/09/22 02:55:53;;;;;;;1.80;1.70;;;;;;;23.60;49.91;98107.16;5052040;28;20217;-22
2022/09/22 02:58:20;;;;;;;1.93;1.77;;;;;;;23.58;49.86;98098.53;5018635;28;20621;-23
2022/09/22 03:00:47;;;;;;;1.80;1.70;;;;;;;23.64;49.77;98108.97;5052612;28;20197;-23
2022/09/22 03:03:13;;;;;;;1.83;1.73;;;;;;;23.64;49.98;98114.09;5051794;28;20204;-23
2022/09/22 03:05:40;;;;;;;2.23;2.03;;;;;;;23.64;49.66;98114.09;5052071;28;20307;-22
2022/09/22 03:08:06;;;;;;;1.77;1.53;;;;;;;23.64;49.70;98111.53;5026749;28;20201;-23
2022/09/22 03:10:33;;;;;;;1.87;1.77;;;;;;;23.65;49.80;98105.56;5052155;28;20668;-23
2022/09/22 03:12:59;;;;;;;2.07;1.83;;;;;;;23.49;49.43;98074.28;5051217;28;20676;-23
2022/09/22 03:15:46;;;;;;;2.03;1.60;;;;;;;23.65;49.50;98102.16;5048175;28;20216;-23
2022/09/22 03:18:13;;;;;;;1.70;1.60;;;;;;;23.60;49.75;98096.00;5052530;28;20229;-23
2022/09/22 03:20:39;;;;;;;1.80;1.70;;;;;;;23.65;49.65;98102.16;5052062;28;20205;-24
2022/09/22 03:23:06;;;;;;;1.90;1.80;;;;;;;23.65;49.54;98095.31;5050934;28;20208;-23
2022/09/22 03:25:32;;;;;;;1.87;1.73;;;;;;;23.65;49.99;98102.16;5051784;28;20232;-23
2022/09/22 03:27:59;;;;;;;1.80;1.70;;;;;;;23.50;49.78;98076.88;5051494;28;20197;-23
2022/09/22 03:30:25;;;;;;;1.90;1.73;;;;;;;23.59;49.63;98095.13;5052243;28;20208;-23
2022/09/22 03:32:52;;;;;;;1.80;1.70;;;;;;;23.63;49.77;98101.22;5051040;28;20664;-23
2022/09/22 03:35:19;;;;;;;1.80;1.70;;;;;;;23.65;49.87;98102.16;5051782;28;20251;-23
2022/09/22 03:37:45;;;;;;;1.70;1.60;;;;;;;23.66;49.81;98109.03;5048312;28;20602;-23
2022/09/22 03:40:12;;;;;;;1.57;1.47;;;;;;;23.64;49.54;98100.41;5044972;28;20201;-23
2022/09/22 03:42:38;;;;;;;1.80;1.70;;;;;;;23.65;50.19;98103.00;5051218;28;20390;-23
2022/09/22 03:45:05;;;;;;;1.80;1.70;;;;;;;23.65;49.76;98105.56;5050787;28;20227;-23
2022/09/22 03:47:32;;;;;;;1.77;1.67;;;;;;;23.62;49.48;98102.91;5051676;28;20581;-23
2022/09/22 03:49:58;;;;;;;2.10;1.90;;;;;;;23.66;49.80;98103.88;5050982;28;20185;-23
2022/09/22 03:52:25;;;;;;;1.63;1.53;;;;;;;23.65;49.84;98103.00;5051149;28;20201;-23
2022/09/22 03:54:52;;;;;;;1.63;1.53;;;;;;;23.65;49.58;98097.03;5051206;28;20222;-23
2022/09/22 03:57:18;;;;;;;1.80;1.70;;;;;;;23.65;49.67;98105.56;5050354;28;20215;-22
2022/09/22 03:59:45;;;;;;;1.87;1.77;;;;;;;23.64;49.81;98103.84;5051095;28;20217;-23
2022/09/22 04:02:11;;;;;;;1.80;1.70;;;;;;;23.63;50.10;98103.78;5050709;28;20211;-23
2022/09/22 04:04:38;;;;;;;1.97;1.87;;;;;;;23.63;49.93;98094.41;5051581;28;20251;-23
2022/09/22 04:07:04;;;;;;;1.70;1.60;;;;;;;23.64;49.90;98101.28;5051280;28;20203;-23
2022/09/22 04:09:33;;;;;;;1.73;1.63;;;;;;;23.61;49.85;98098.63;5050386;28;20197;-24
2022/09/22 04:11:59;;;;;;;1.80;1.70;;;;;;;23.63;49.73;98099.53;5051134;28;20197;-24
2022/09/22 04:14:26;;;;;;;1.67;1.57;;;;;;;23.64;49.44;98100.41;5050631;28;20768;-22
2022/09/22 04:16:53;;;;;;;1.50;1.40;;;;;;;23.64;49.74;98102.97;5050190;28;20193;-22
2022/09/22 04:19:19;;;;;;;1.67;1.57;;;;;;;23.65;49.56;98104.72;5051311;28;20224;-23
2022/09/22 04:21:46;;;;;;;1.60;1.50;;;;;;;23.64;49.54;98110.66;5051062;28;20193;-22
2022/09/22 04:24:12;;;;;;;1.53;1.43;;;;;;;23.64;49.77;98103.84;5042805;28;20225;-22
2022/09/22 04:26:39;;;;;;;1.77;1.67;;;;;;;23.64;49.62;98105.53;5051007;28;20197;-23
2022/09/22 04:29:25;;;;;;;1.70;1.60;;;;;;;23.64;49.71;98105.53;5050526;28;20254;-23
2022/09/22 04:31:52;;;;;;;1.73;1.63;;;;;;;23.64;49.57;98108.97;5048587;28;20668;-23
2022/09/22 04:34:18;;;;;;;1.80;1.70;;;;;;;23.64;49.56;98106.41;5050264;28;20229;-23
2022/09/22 04:36:45;;;;;;;2.40;1.60;;;;;;;23.64;49.36;98106.41;5050356;28;20205;-23
2022/09/22 04:39:11;;;;;;;2.00;1.87;;;;;;;23.65;49.38;98104.72;5049721;28;20240;-23
2022/09/22 04:41:38;;;;;;;1.70;1.60;;;;;;;23.64;49.26;98101.28;5049282;28;20197;-23
2022/09/22 04:44:04;;;;;;;1.77;1.67;;;;;;;23.65;49.52;98107.28;5050171;28;20239;-23
2022/09/22 04:46:31;;;;;;;1.80;1.70;;;;;;;23.64;49.57;98106.41;5050058;28;20193;-22
2022/09/22 04:48:58;;;;;;;1.70;1.60;;;;;;;23.64;49.47;98101.28;5050527;28;20232;-23
2022/09/22 04:51:24;;;;;;;1.70;1.60;;;;;;;23.24;49.23;98041.91;5049209;28;20204;-23
2022/09/22 04:53:51;;;;;;;1.50;1.40;;;;;;;23.65;49.53;98110.72;5045243;28;20676;-23
2022/09/22 04:56:17;;;;;;;1.70;1.60;;;;;;;23.61;49.42;98103.75;5039252;28;20209;-23
2022/09/22 04:58:44;;;;;;;1.40;1.30;;;;;;;23.67;49.50;98110.75;5054568;28;20216;-27
2022/09/22 05:01:10;;;;;;;1.93;1.57;;;;;;;23.66;49.29;98111.59;5047805;28;20193;-23
2022/09/22 05:03:37;;;;;;;1.70;1.60;;;;;;;23.67;49.14;98113.31;5050081;28;20235;-22
2022/09/22 05:06:05;;;;;;;1.67;1.57;;;;;;;23.65;49.44;98109.84;5049308;28;20283;-24
2022/09/22 05:08:31;;;;;;;1.50;1.40;;;;;;;23.66;49.70;98116.72;5042630;28;20212;-22
2022/09/22 05:10:58;;;;;;;2.00;1.77;;;;;;;23.66;49.50;98115.03;5048380;28;20200;-23
2022/09/22 05:13:25;;;;;;;2.30;2.10;;;;;;;23.66;48.57;98119.28;5048757;28;20655;-22
2022/09/22 05:15:51;;;;;;;3.80;2.63;;;;;;;23.52;48.20;98093.22;5049509;28;20224;-23
2022/09/22 05:18:18;;;;;;;3.73;3.30;;;;;;;23.64;46.68;98126.06;5043687;28;20212;-24
2022/09/22 05:20:44;;;;;;;6.93;2.90;;;;;;;23.63;46.05;98126.88;5049580;28;20460;-23
2022/09/22 05:23:11;;;;;;;4.53;3.17;;;;;;;23.62;44.90;98123.44;5050285;28;20197;-23
2022/09/22 05:25:38;;;;;;;5.27;3.27;;;;;;;23.62;43.52;98133.72;5048656;28;20228;-23
2022/09/22 05:28:04;;;;;;;4.03;3.33;;;;;;;23.62;42.10;98132.88;5050054;28;20200;-24
2022/09/22 05:30:31;;;;;;;4.87;3.80;;;;;;;23.60;41.49;98129.38;5050455;28;20203;-23
2022/09/22 05:32:57;;;;;;;4.57;3.67;;;;;;;23.59;40.49;98132.75;5049948;28;20201;-23
2022/09/22 05:35:24;;;;;;;4.57;3.83;;;;;;;23.58;40.08;98131.00;5049476;28;20660;-23
2022/09/22 05:37:51;;;;;;;3.77;3.47;;;;;;;23.48;39.91;98121.28;5049437;28;20200;-23
2022/09/22 05:40:18;;;;;;;4.10;3.70;;;;;;;23.54;40.20;98134.31;5050000;28;20228;-23
2022/09/22 05:42:46;;;;;;;7.07;4.23;;;;;;;23.54;41.27;98129.19;5049403;28;20227;-22
2022/09/22 05:45:13;;;;;;;4.17;3.63;;;;;;;23.42;41.62;98120.28;5048603;28;20695;-23
2022/09/22 05:47:40;;;;;;;4.93;3.47;;;;;;;23.47;41.89;98128.09;5031975;28;20472;-23
2022/09/22 05:50:07;;;;;;;4.13;3.77;;;;;;;23.41;42.19;98109.97;5049676;28;20189;-23
2022/09/22 05:52:33;;;;;;;4.00;3.47;;;;;;;23.51;42.68;98131.66;5047946;28;20579;-23
2022/09/22 05:55:00;;;;;;;4.20;3.40;;;;;;;23.51;42.68;98137.66;5049772;28;20231;-23
2022/09/22 05:57:27;;;;;;;3.80;3.50;;;;;;;23.45;43.28;98127.22;5049929;28;20216;-23
2022/09/22 05:59:53;;;;;;;8.13;3.90;;;;;;;23.50;42.11;98129.91;5043080;28;20698;-22
2022/09/22 06:02:20;;;;;;;7.00;4.13;;;;;;;23.50;41.07;98129.91;5048406;28;20201;-23
2022/09/22 06:04:52;;;;;;;6.20;3.93;;;;;;;23.50;41.14;98132.47;5035796;28;20348;-22
2022/09/22 06:07:22;;;;;;;7.77;3.93;;;;;;;23.49;42.19;98135.84;5042365;28;20208;-24
2022/09/22 06:09:49;;;;;;;4.63;3.67;;;;;;;23.49;42.81;98133.28;5043679;28;20348;-23
2022/09/22 06:12:16;;;;;;;6.70;3.70;;;;;;;23.47;43.40;98132.38;5050994;28;20201;-24
2022/09/22 06:14:43;;;;;;;4.77;3.53;;;;;;;23.47;43.77;98135.81;5050975;28;20223;-25
2022/09/22 06:17:10;;;;;;;6.03;3.73;;;;;;;23.49;44.12;98131.59;5052249;28;20571;-23
2022/09/22 06:19:37;;;;;;;4.00;3.53;;;;;;;23.42;44.17;98124.56;5033689;28;20243;-25
2022/09/22 06:22:04;;;;;;;3.60;2.90;;;;;;;23.50;44.46;98135.03;5048420;28;20580;-22
2022/09/22 06:24:31;;;;;;;3.63;3.30;;;;;;;23.42;44.72;98129.69;5052867;28;20232;-23
2022/09/22 06:26:57;;;;;;;4.23;3.50;;;;;;;23.49;45.03;98129.03;5047863;28;20556;-23
2022/09/22 06:29:24;;;;;;;4.50;3.37;;;;;;;23.49;45.45;98129.03;5053238;28;20576;-24
2022/09/22 06:31:51;;;;;;;3.53;3.10;;;;;;;23.49;45.53;98131.59;5052320;28;20219;-25
2022/09/22 06:34:18;;;;;;;5.50;3.40;;;;;;;23.49;45.50;98126.47;5051880;28;20319;-23
2022/09/22 06:36:44;;;;;;;5.37;3.23;;;;;;;23.49;44.95;98126.47;5051594;28;20687;-25
2022/09/22 06:39:11;;;;;;;6.53;3.13;;;;;;;23.48;45.03;98121.28;5045571;28;20220;-23
2022/09/22 06:41:38;;;;;;;7.57;3.37;;;;;;;23.50;45.48;98125.63;5051111;28;20212;-22
2022/09/22 06:44:05;;;;;;;3.57;3.07;;;;;;;23.51;45.73;98129.09;5050735;28;20224;-23
2022/09/22 06:46:32;;;;;;;3.73;3.00;;;;;;;23.51;45.55;98123.94;5051034;28;20203;-23
2022/09/22 06:48:59;;;;;;;4.70;3.40;;;;;;;23.45;45.64;98106.69;5051608;28;20189;-23
2022/09/22 06:51:26;;;;;;;4.67;3.20;;;;;;;23.51;45.71;98124.84;5052860;28;20204;-23
2022/09/22 06:53:56;;;;;;;5.87;3.07;;;;;;;23.52;45.75;98124.00;5050095;28;20208;-22
2022/09/22 06:56:24;;;;;;;3.33;3.00;;;;;;;23.52;45.91;98123.13;5049765;28;20212;-23
2022/09/22 06:58:51;;;;;;;3.73;3.23;;;;;;;23.51;46.25;98119.69;5051299;28;20205;-22
2022/09/22 07:01:35;;;;;;;5.07;3.20;;;;;;;23.53;46.20;98125.72;5047962;28;20207;-25
2022/09/22 07:04:03;;;;;;;3.80;2.90;;;;;;;23.53;46.45;98125.72;5052032;28;20220;-30
2022/09/22 07:06:30;;;;;;;3.33;3.03;;;;;;;23.53;46.63;98130.88;5049790;28;20189;-23
2022/09/22 07:08:56;;;;;;;3.10;2.80;;;;;;;23.53;46.69;98124.88;5048055;28;20272;-23
2022/09/22 07:11:23;;;;;;;4.83;2.97;;;;;;;23.49;46.79;98123.91;5052393;28;20208;-22
2022/09/22 07:13:52;;;;;;;4.23;3.13;;;;;;;23.54;46.79;98134.31;5051678;28;20205;-23
2022/09/22 07:16:19;;;;;;;3.53;2.63;;;;;;;23.54;46.94;98130.06;5048795;28;20282;-23
2022/09/22 07:18:47;;;;;;;3.83;2.83;;;;;;;23.55;47.17;98128.34;5052050;28;20255;-22
2022/09/22 07:21:22;;;;;;;3.43;3.07;;;;;;;23.54;47.42;98127.50;5049010;28;20254;-23
2022/09/22 07:23:50;;;;;;;4.60;3.07;;;;;;;23.55;47.40;98134.34;5051545;28;20205;-24
2022/09/22 07:26:18;;;;;;;3.13;2.80;;;;;;;22.19;46.60;97900.94;5050529;28;20205;-23
2022/09/22 07:28:45;;;;;;;8.87;3.23;;;;;;;23.50;47.00;98130.75;5051762;28;20193;-25
2022/09/22 07:31:13;;;;;;;5.47;3.03;;;;;;;23.55;47.53;98139.50;5049503;28;20209;-22
2022/09/22 07:33:41;;;;;;;4.23;3.07;;;;;;;23.50;47.66;98129.91;5046471;28;20235;-22
2022/09/22 07:36:18;;;;;;;3.73;2.80;;;;;;;23.56;48.01;98133.53;5046636;28;20231;-23
2022/09/22 07:38:47;;;;;;;3.13;2.60;;;;;;;23.57;48.14;98132.72;5051398;28;20201;-23
2022/09/22 07:41:21;;;;;;;4.87;3.00;;;;;;;23.47;48.14;98114.44;5052243;28;20288;-23
2022/09/22 07:43:51;;;;;;;3.07;2.50;;;;;;;23.58;48.36;98137.00;5046858;28;20624;-22
2022/09/22 07:46:18;;;;;;;2.77;2.47;;;;;;;23.59;48.60;98133.63;5050878;28;20197;-22
2022/09/22 07:48:45;;;;;;;3.10;2.57;;;;;;;23.59;48.65;98136.19;5051419;28;20574;-22
2022/09/22 07:51:20;;;;;;;3.83;2.60;;;;;;;23.58;48.45;98126.75;5051187;28;20200;-22
2022/09/22 07:54:03;;;;;;;4.50;3.10;;;;;;;23.59;48.50;98133.63;5050834;28;20192;-22
2022/09/22 07:56:29;;;;;;;4.03;3.00;;;;;;;23.58;48.29;98129.31;5051593;28;20223;-23
2022/09/22 07:58:56;;;;;;;3.33;2.80;;;;;;;23.59;48.69;98135.34;5050545;28;20667;-22
2022/09/22 08:01:23;;;;;;;3.23;2.80;;;;;;;23.59;48.88;98132.75;5051708;28;20283;-23
2022/09/22 08:03:51;;;;;;;4.00;2.70;;;;;;;23.59;48.79;98135.34;5051101;28;20726;-23
2022/09/22 08:06:18;;;;;;;3.20;2.60;;;;;;;23.54;48.94;98118.91;5051708;28;20201;-23
2022/09/22 08:08:51;;;;;;;2.70;2.50;;;;;;;23.60;49.26;98127.69;5051230;28;20193;-25
2022/09/22 08:11:27;;;;;;;4.73;2.63;;;;;;;23.61;49.21;98131.09;5038264;28;20258;-22
2022/09/22 08:14:01;;;;;;;3.80;2.23;;;;;;;23.62;49.26;98127.72;5050344;28;20208;-22
2022/09/22 08:16:29;;;;;;;3.27;2.97;;;;;;;23.62;49.37;98131.16;5045661;28;20228;-22
2022/09/22 08:18:57;;;;;;;3.10;2.80;;;;;;;23.61;49.26;98126.84;5050750;28;20230;-25
2022/09/22 08:21:24;;;;;;;5.27;2.83;;;;;;;23.63;49.04;98137.16;5051782;28;20205;-23
2022/09/22 08:23:53;;;;;;;3.60;2.67;;;;;;;23.62;49.10;98136.28;5051380;28;20589;-22
2022/09/22 08:26:19;;;;;;;4.17;2.77;;;;;;;23.61;49.36;98129.41;5051706;28;20200;-23
2022/09/22 08:28:50;;;;;;;4.73;2.60;;;;;;;23.58;49.37;98126.75;5046318;28;20216;-23
2022/09/22 08:31:18;;;;;;;3.00;2.70;;;;;;;23.60;49.27;98127.69;5043559;28;20201;-23
2022/09/22 08:33:46;;;;;;;4.83;3.00;;;;;;;23.53;49.11;98117.19;5049183;28;20201;-28
2022/09/22 08:36:14;;;;;;;2.90;2.60;;;;;;;23.61;49.19;98131.09;5053950;23;20231;-31
2022/09/22 08:38:41;;;;;;;4.47;2.53;;;;;;;23.07;49.50;98036.19;5023470;28;20205;-31
2022/09/22 08:41:23;;;;;;;2.83;2.53;;;;;;;23.61;49.68;98126.84;5034016;28;20719;-31
2022/09/22 08:43:54;;;;;;;3.90;2.60;;;;;;;23.59;49.71;98127.63;5024864;28;20216;-31
2022/09/22 08:46:26;;;;;;;2.57;2.37;;;;;;;23.62;49.78;98122.59;5013225;28;20226;-32
2022/09/22 08:51:54;;;;;;;3.00;2.63;;;;;;;23.62;50.00;98115.75;5032457;28;20210;-31
2022/09/22 08:54:28;;;;;;;3.37;2.50;;;;;;;23.62;49.85;98113.19;5013097;28;20248;-32
2022/09/22 08:57:01;;;;;;;3.10;2.80;;;;;;;23.63;49.69;98114.06;5022049;28;20680;-31
2022/09/22 08:59:42;;;;;;;2.73;2.50;;;;;;;23.63;49.93;98114.06;5018142;28;20233;-31
2022/09/22 09:02:36;;;;;;;2.87;2.67;;;;;;;23.63;49.76;98114.94;5032530;28;20222;-31
2022/09/22 09:05:22;;;;;;;2.70;2.50;;;;;;;23.62;50.09;98115.75;5013348;28;20314;-31
2022/09/22 09:08:03;;;;;;;2.60;2.10;;;;;;;23.55;50.04;98093.31;5018454;28;20213;-31
2022/09/22 09:10:33;;;;;;;3.33;2.70;;;;;;;23.63;49.92;98103.78;5012195;28;20209;-31
2022/09/22 09:13:02;;;;;;;2.60;2.40;;;;;;;23.64;50.16;98110.66;5018636;28;20216;-31
2022/09/22 09:15:53;;;;;;;2.97;2.40;;;;;;;23.64;50.16;98110.66;5015994;28;20348;-31
2022/09/22 09:18:23;;;;;;;3.50;2.57;;;;;;;23.63;50.18;98111.50;5013169;28;20236;-31
2022/09/22 09:20:50;;;;;;;2.60;2.40;;;;;;;23.61;50.20;98119.16;5014812;28;20218;-31
2022/09/22 09:23:19;;;;;;;2.70;2.30;;;;;;;23.59;49.91;98105.38;5014766;28;20218;-31
2022/09/22 09:25:51;;;;;;;3.50;2.17;;;;;;;23.52;50.09;98090.66;5030067;28;20217;-31
2022/09/22 09:28:19;;;;;;;3.30;2.70;;;;;;;23.55;49.95;98102.69;5015097;28;20197;-31
2022/09/22 09:30:55;;;;;;;2.60;2.40;;;;;;;23.59;49.87;98118.22;4999454;28;20313;-31
2022/09/22 09:34:01;;;;;;;2.67;2.27;;;;;;;23.61;49.92;98105.44;5011409;28;20207;-31
2022/09/22 09:36:30;;;;;;;3.63;2.37;;;;;;;23.51;50.28;98083.78;5017388;28;20286;-32
2022/09/22 09:38:56;;;;;;;2.73;2.00;;;;;;;23.61;50.08;98108.88;4993888;28;21465;-31
2022/09/22 09:41:31;;;;;;;2.50;2.30;;;;;;;23.57;50.42;98098.47;5004765;28;20266;-31
2022/09/22 09:44:00;;;;;;;2.33;2.13;;;;;;;23.58;50.10;98101.09;5018337;28;20199;-31
2022/09/22 09:46:30;;;;;;;2.50;2.30;;;;;;;23.61;50.25;98106.31;5001760;28;20221;-31
2022/09/22 09:49:08;;;;;;;2.67;2.33;;;;;;;23.61;50.31;98101.19;5017910;28;20213;-31
2022/09/22 09:51:37;;;;;;;4.77;2.27;;;;;;;23.60;50.51;98098.56;5022043;28;20197;-31
2022/09/22 09:54:08;;;;;;;2.60;2.40;;;;;;;23.61;50.32;98102.88;5031300;28;20241;-31
2022/09/22 09:57:05;;;;;;;2.77;2.57;;;;;;;23.62;50.38;98096.94;5017168;28;20232;-31
2022/09/22 10:02:21;;;;;;;2.70;2.50;;;;;;;23.60;50.65;98091.75;5022700;28;20209;-31
2022/09/22 10:04:55;;;;;;;2.93;2.40;;;;;;;23.56;50.75;98083.91;5016113;28;20229;-31
2022/09/22 10:07:26;;;;;;;5.00;2.40;;;;;;;23.62;50.58;98091.81;5013659;28;20201;-31
2022/09/22 10:09:54;;;;;;;2.50;2.30;;;;;;;23.58;50.59;98080.56;5037070;28;20205;-31
2022/09/22 10:12:21;;;;;;;3.23;2.10;;;;;;;23.61;50.79;98083.22;5024008;28;20217;-31
2022/09/22 10:14:50;;;;;;;2.37;2.17;;;;;;;23.56;50.45;98065.97;5042277;28;20225;-31
2022/09/22 10:17:21;;;;;;;2.97;2.40;;;;;;;23.60;50.41;98081.50;5042389;28;20209;-31
2022/09/22 10:19:49;;;;;;;3.17;2.40;;;;;;;23.54;50.89;98062.47;5042160;28;20231;-31
2022/09/22 10:22:26;;;;;;;2.40;2.20;;;;;;;23.58;50.51;98056.59;5038650;28;20197;-31
2022/09/22 10:24:53;;;;;;;2.20;2.00;;;;;;;23.58;50.63;98065.16;5036207;28;20223;-31
2022/09/22 10:27:22;;;;;;;2.63;2.20;;;;;;;23.58;50.54;98072.88;5034643;28;20659;-31
2022/09/22 10:30:11;;;;;;;3.30;2.30;;;;;;;23.58;50.75;98069.41;5034564;28;20688;-31
2022/09/22 10:32:39;;;;;;;2.53;2.33;;;;;;;23.58;50.74;98067.72;5040050;28;20197;-31
2022/09/22 10:35:24;;;;;;;2.30;2.10;;;;;;;23.58;50.75;98072.88;5035545;28;20233;-31
2022/09/22 10:37:51;;;;;;;2.57;2.37;;;;;;;23.59;50.81;98072.03;5038450;28;20212;-31
2022/09/22 10:40:18;;;;;;;2.80;2.17;;;;;;;23.60;50.66;98070.34;5038421;28;20229;-31
2022/09/22 10:42:44;;;;;;;2.40;2.20;;;;;;;23.58;50.88;98066.84;5016685;28;20208;-31
2022/09/22 10:45:15;;;;;;;2.50;2.30;;;;;;;23.60;50.95;98070.34;5039380;28;20221;-31
2022/09/22 10:48:11;;;;;;;2.30;2.10;;;;;;;23.55;50.99;98049.69;5034403;28;20205;-31
2022/09/22 10:50:44;;;;;;;3.40;2.20;;;;;;;23.62;50.80;98063.56;5033010;28;20232;-31
2022/09/22 10:53:26;;;;;;;3.67;2.40;;;;;;;23.61;51.05;98067.81;5033790;28;20224;-31
2022/09/22 10:56:29;;;;;;;3.33;2.27;;;;;;;23.61;51.11;98061.81;5039051;28;20221;-31
2022/09/22 10:59:17;;;;;;;2.37;2.17;;;;;;;23.61;50.83;98059.25;5040746;28;20200;-31
2022/09/22 11:02:06;;;;;;;2.63;2.43;;;;;;;23.61;50.91;98065.25;5041727;28;20605;-31
2022/09/22 11:04:51;;;;;;;2.13;1.90;;;;;;;23.62;50.89;98061.00;5017869;28;20222;-31
2022/09/22 11:14:44;;;;;;;3.37;2.37;;;;;;;23.61;51.04;98057.56;4989211;28;20207;-31
2022/09/22 11:17:20;;;;;;;2.57;2.23;;;;;;;23.61;50.91;98048.97;5033537;28;20202;-31
2022/09/22 11:20:07;;;;;;;3.17;2.57;;;;;;;23.61;50.72;98044.72;5044063;28;20202;-31
2022/09/22 11:22:43;;;;;;;3.10;2.53;;;;;;;23.61;50.87;98044.72;5018575;28;20202;-31
2022/09/22 11:25:28;;;;;;;4.17;2.70;;;;;;;23.61;50.73;98043.84;5035801;28;20703;-31
2022/09/22 11:28:03;;;;;;;3.83;2.57;;;;;;;23.61;50.84;98046.41;5013887;28;20202;-31
2022/09/22 11:30:44;;;;;;;7.70;2.83;;;;;;;23.51;50.89;98034.16;5022090;28;20209;-31
2022/09/22 11:33:25;;;;;;;6.67;2.77;;;;;;;23.61;50.81;98048.97;5002055;28;20629;-31
2022/09/22 11:36:22;;;;;;;4.00;2.50;;;;;;;23.61;50.89;98028.44;5018716;28;20244;-31
2022/09/22 11:39:07;;;;;;;3.23;2.33;;;;;;;23.62;51.12;98035.34;5018725;28;20217;-31
2022/09/22 11:42:01;;;;;;;3.47;2.70;;;;;;;23.61;50.96;98034.47;5018218;28;20221;-31
2022/09/22 11:45:19;;;;;;;5.23;3.07;;;;;;;23.62;51.06;98035.34;5016612;28;23090;-31
2022/09/22 11:48:23;;;;;;;3.90;2.63;;;;;;;22.98;51.10;97922.25;5013485;28;20439;-31
2022/09/22 11:50:58;;;;;;;3.30;2.40;;;;;;;23.60;50.83;98027.59;5020086;28;20216;-31
2022/09/22 11:53:34;;;;;;;4.77;2.63;;;;;;;23.63;50.92;98031.94;5021361;28;20594;-31
2022/09/22 11:56:15;;;;;;;3.23;2.60;;;;;;;23.63;51.03;98030.25;5039595;28;20221;-31
2022/09/22 11:58:43;;;;;;;4.50;3.10;;;;;;;23.58;51.04;98018.09;5034119;28;20293;-31
2022/09/22 12:01:12;;;;;;;5.10;2.80;;;;;;;23.57;50.96;98016.38;5013176;28;20225;-31
2022/09/22 12:03:42;;;;;;;4.73;3.27;;;;;;;23.58;51.23;98012.97;5007550;28;20255;-31
2022/09/22 12:06:20;;;;;;;3.00;2.40;;;;;;;23.45;50.98;97972.41;5009440;28;20646;-31
2022/09/22 12:08:52;;;;;;;6.00;2.80;;;;;;;23.54;50.89;97994.06;5005759;28;20207;-31